Time;durP1;ratioP1;P1;durP2;ratioP2;P2;SDS_P1;SDS_P2;PMS_P1;PMS_P2;Temp;Humidity;BMP_temperature;BMP_pressure;BME280_temperature;BME280_humidity;BME280_pressure;Samples;Min_cycle;Max_cycle;Signal;HPM_P1;HPM_P2
2022/10/15 00:00:43;;;;;;;58.65;30.92;;;12.40;99.90;;;;;;6347929;22;20014;-78
2022/10/15 00:03:09;;;;;;;64.68;31.98;;;12.40;99.90;;;;;;6370982;22;20010;-78
2022/10/15 00:05:39;;;;;;;62.28;32.00;;;12.40;99.90;;;;;;6371038;22;20006;-78
2022/10/15 00:08:06;;;;;;;65.68;31.70;;;12.40;99.90;;;;;;6370988;22;20094;-78
2022/10/15 00:10:32;;;;;;;62.80;30.40;;;12.40;99.90;;;;;;6370969;22;20050;-77
2022/10/15 00:12:58;;;;;;;57.67;30.58;;;12.40;99.90;;;;;;6370617;22;20060;-77
2022/10/15 00:15:23;;;;;;;69.20;32.38;;;12.40;99.90;;;;;;6342844;22;20021;-77
2022/10/15 00:17:49;;;;;;;65.93;32.10;;;12.40;99.90;;;;;;6371007;22;20048;-78
2022/10/15 00:20:15;;;;;;;65.70;31.58;;;12.40;99.90;;;;;;6370979;22;20433;-78
2022/10/15 00:22:40;;;;;;;71.75;33.72;;;12.40;99.90;;;;;;6342810;22;20025;-78
2022/10/15 00:25:08;;;;;;;66.43;32.50;;;12.40;99.90;;;;;;6370607;22;20025;-78
2022/10/15 00:27:35;;;;;;;71.20;34.38;;;12.40;99.90;;;;;;6344145;22;20010;-77
2022/10/15 00:30:02;;;;;;;74.75;35.40;;;12.40;99.90;;;;;;6372910;22;20015;-78
2022/10/15 00:32:28;;;;;;;79.45;35.38;;;12.40;99.90;;;;;;6372849;22;20019;-78
2022/10/15 00:34:54;;;;;;;75.07;36.83;;;12.40;99.90;;;;;;6372997;22;20022;-78
2022/10/15 00:37:20;;;;;;;83.43;38.17;;;12.40;99.90;;;;;;6372464;22;20022;-78
2022/10/15 00:39:46;;;;;;;71.68;35.42;;;12.40;99.90;;;;;;6372452;22;20341;-78
2022/10/15 00:42:11;;;;;;;80.88;38.30;;;12.40;99.90;;;;;;6344573;22;20015;-78
2022/10/15 00:45:11;;;;;;;79.85;39.13;;;12.40;99.90;;;;;;6344571;22;20029;-78
2022/10/15 00:47:49;;;;;;;80.30;38.78;;;12.40;99.90;;;;;;6349690;22;20018;-78
2022/10/15 00:54:00;;;;;;;;;;;12.40;99.90;;;;;;6373277;22;20014;-78
2022/10/15 01:09:15;;;;;;;81.63;35.15;;;12.40;99.90;;;;;;6366298;22;20074;-78
2022/10/15 01:11:56;;;;;;;80.70;37.17;;;12.30;99.90;;;;;;6312997;22;20439;-77
2022/10/15 01:14:42;;;;;;;96.40;40.45;;;12.40;99.90;;;;;;6312863;22;20442;-78
2022/10/15 01:17:22;;;;;;;87.80;40.00;;;12.40;99.90;;;;;;6340875;22;20099;-78
2022/10/15 01:20:03;;;;;;;98.28;40.80;;;12.40;99.90;;;;;;6312853;22;20407;-77
2022/10/15 01:22:53;;;;;;;92.72;40.00;;;12.40;99.90;;;;;;6313024;22;20331;-78
2022/10/15 01:25:28;;;;;;;93.13;39.28;;;12.40;99.90;;;;;;6312921;22;20033;-78
2022/10/15 01:28:14;;;;;;;104.00;41.42;;;12.40;99.90;;;;;;6340799;22;20033;-77
2022/10/15 01:31:20;;;;;;;99.75;40.28;;;12.40;99.90;;;;;;6340569;22;20022;-78
2022/10/15 01:33:56;;;;;;;91.00;38.42;;;12.40;99.90;;;;;;6312819;22;20019;-78
2022/10/15 01:36:51;;;;;;;98.72;40.88;;;12.40;99.90;;;;;;6340689;22;20014;-78
2022/10/15 01:39:35;;;;;;;101.65;40.67;;;12.40;99.90;;;;;;6312699;22;20021;-78
2022/10/15 01:42:16;;;;;;;84.20;37.92;;;12.50;99.90;;;;;;6340239;22;20041;-78
2022/10/15 01:44:52;;;;;;;87.22;37.92;;;12.40;99.90;;;;;;6340555;22;20094;-78
2022/10/15 01:47:31;;;;;;;81.05;38.85;;;12.40;99.90;;;;;;6312634;22;20110;-78
2022/10/15 01:50:00;;;;;;;84.00;37.72;;;12.40;99.90;;;;;;6340513;22;20019;-78
2022/10/15 01:52:31;;;;;;;91.10;40.33;;;12.40;99.90;;;;;;6312717;22;20011;-78
2022/10/15 01:54:58;;;;;;;90.70;38.45;;;12.40;99.90;;;;;;6340617;22;20015;-78
2022/10/15 01:57:26;;;;;;;94.95;41.55;;;12.40;99.90;;;;;;6340473;22;20018;-78
2022/10/15 01:59:53;;;;;;;94.03;39.80;;;12.40;99.90;;;;;;6340101;22;20338;-78
2022/10/15 02:02:18;;;;;;;88.72;38.67;;;12.40;99.90;;;;;;6312489;22;20319;-78
2022/10/15 02:04:44;;;;;;;91.50;37.75;;;12.40;99.90;;;;;;6340116;22;20080;-78
2022/10/15 02:07:48;;;;;;;89.10;40.10;;;12.40;99.90;;;;;;6312590;22;20019;-78
2022/10/15 02:10:40;;;;;;;83.80;37.05;;;12.40;99.90;;;;;;6319579;22;20044;-78
2022/10/15 02:13:17;;;;;;;83.18;35.88;;;12.40;99.90;;;;;;6338511;22;20338;-78
2022/10/15 02:16:02;;;;;;;81.35;37.05;;;12.40;99.90;;;;;;6338546;22;20435;-78
2022/10/15 02:18:38;;;;;;;72.10;34.47;;;12.40;99.90;;;;;;6338566;22;20102;-78
2022/10/15 02:21:14;;;;;;;78.75;35.75;;;12.40;99.90;;;;;;6340463;22;20022;-77
2022/10/15 02:24:04;;;;;;;83.38;36.22;;;12.40;99.90;;;;;;6340808;22;20053;-77
2022/10/15 02:26:29;;;;;;;76.45;35.08;;;12.40;99.90;;;;;;6340369;22;20010;-77
2022/10/15 02:28:58;;;;;;;78.47;35.22;;;12.40;99.90;;;;;;6338375;22;20101;-77
2022/10/15 02:31:26;;;;;;;81.97;35.10;;;12.40;99.90;;;;;;6339806;22;20015;-77
2022/10/15 02:33:57;;;;;;;73.82;34.60;;;12.40;99.90;;;;;;6340252;22;20046;-77
2022/10/15 02:36:23;;;;;;;79.50;34.92;;;12.40;99.90;;;;;;6338363;22;20511;-78
2022/10/15 02:38:50;;;;;;;78.03;36.25;;;12.40;99.90;;;;;;6338297;22;20046;-78
2022/10/15 02:41:17;;;;;;;67.03;31.55;;;12.40;99.90;;;;;;6338331;22;20442;-78
2022/10/15 02:43:42;;;;;;;76.28;33.95;;;12.40;99.90;;;;;;6338209;22;20319;-78
2022/10/15 02:46:11;;;;;;;79.47;35.08;;;12.40;99.90;;;;;;6340150;22;20464;-78
2022/10/15 02:56:02;;;;;;;78.60;37.97;;;12.40;99.90;;;;;;6340054;22;20017;-77
2022/10/15 03:02:11;;;;;;;77.05;37.80;;;12.40;99.90;;;;;;6340318;22;20018;-77
2022/10/15 03:04:38;;;;;;;79.95;37.88;;;12.40;99.90;;;;;;6340087;22;20042;-78
2022/10/15 03:07:03;;;;;;;82.60;39.78;;;12.40;99.90;;;;;;6338181;22;20032;-78
2022/10/15 03:09:29;;;;;;;86.70;40.30;;;12.40;99.90;;;;;;6340622;22;20396;-78
2022/10/15 03:11:55;;;;;;;84.72;39.03;;;12.40;99.90;;;;;;6371462;22;20046;-77
2022/10/15 03:14:20;;;;;;;84.18;38.83;;;12.40;99.90;;;;;;6343258;22;20046;-77
2022/10/15 03:16:46;;;;;;;88.63;39.65;;;12.40;99.90;;;;;;6371403;22;20442;-78
2022/10/15 03:19:11;;;;;;;94.13;42.38;;;12.40;99.90;;;;;;6371322;22;20006;-78
2022/10/15 03:21:37;;;;;;;115.10;43.88;;;12.50;99.90;;;;;;6343229;22;20349;-77
2022/10/15 03:24:03;;;;;;;99.60;44.13;;;12.50;99.90;;;;;;6371260;22;20068;-77
2022/10/15 03:26:29;;;;;;;96.57;44.63;;;12.50;99.90;;;;;;6343224;22;20022;-77
2022/10/15 03:28:54;;;;;;;99.55;43.50;;;12.50;99.90;;;;;;6371202;22;20015;-77
2022/10/15 03:31:20;;;;;;;102.07;43.88;;;12.40;99.90;;;;;;6370968;22;20023;-78
2022/10/15 03:33:46;;;;;;;98.60;44.80;;;12.50;99.90;;;;;;6343025;22;20311;-78
2022/10/15 03:36:11;;;;;;;91.70;43.55;;;12.50;99.90;;;;;;6343119;22;20022;-78
2022/10/15 03:38:37;;;;;;;94.55;42.70;;;12.40;99.90;;;;;;6371222;22;20494;-78
2022/10/15 03:41:03;;;;;;;90.95;42.83;;;12.50;99.90;;;;;;6371187;22;20075;-78
2022/10/15 03:43:28;;;;;;;101.75;42.20;;;12.50;99.90;;;;;;6371156;22;20006;-78
2022/10/15 03:45:54;;;;;;;88.63;39.63;;;12.50;99.90;;;;;;6370748;22;20323;-78
2022/10/15 03:48:20;;;;;;;89.22;40.85;;;12.50;99.90;;;;;;6343030;22;20015;-78
2022/10/15 03:50:46;;;;;;;87.55;40.10;;;12.50;99.90;;;;;;6371086;22;20043;-78
2022/10/15 03:53:11;;;;;;;85.13;39.78;;;12.50;99.90;;;;;;6371113;22;20034;-78
2022/10/15 03:55:37;;;;;;;89.30;40.42;;;12.50;99.90;;;;;;6371105;22;20014;-78
2022/10/15 03:58:02;;;;;;;80.38;38.38;;;12.50;99.90;;;;;;6370793;22;20053;-78
2022/10/15 04:00:28;;;;;;;78.13;38.00;;;12.50;99.90;;;;;;6342955;22;20024;-78
2022/10/15 04:02:54;;;;;;;81.50;38.28;;;12.50;99.90;;;;;;6344648;22;20045;-78
2022/10/15 04:05:20;;;;;;;83.18;39.65;;;12.50;99.90;;;;;;6373253;22;20017;-78
2022/10/15 04:07:46;;;;;;;82.13;37.13;;;12.50;99.90;;;;;;6372816;22;20042;-78
2022/10/15 04:10:11;;;;;;;86.63;38.28;;;12.50;99.90;;;;;;6372769;22;20028;-78
2022/10/15 04:12:37;;;;;;;85.22;39.42;;;12.50;99.90;;;;;;6373076;22;20017;-77
2022/10/15 04:15:04;;;;;;;86.22;38.88;;;12.40;99.90;;;;;;6372808;22;20022;-77
2022/10/15 04:17:30;;;;;;;85.57;39.35;;;12.50;99.90;;;;;;6344954;22;20017;-77
2022/10/15 04:19:55;;;;;;;76.65;36.38;;;12.50;99.90;;;;;;6344869;22;20019;-77
2022/10/15 04:22:21;;;;;;;86.20;40.05;;;12.40;99.90;;;;;;6344863;22;20025;-77
2022/10/15 04:24:46;;;;;;;87.03;39.53;;;12.40;99.90;;;;;;6373092;22;20017;-77
2022/10/15 04:27:13;;;;;;;83.53;38.58;;;12.40;99.90;;;;;;6345490;22;20018;-77
2022/10/15 04:29:38;;;;;;;87.50;37.83;;;12.40;99.90;;;;;;6344692;22;20018;-78
2022/10/15 04:32:05;;;;;;;82.22;37.45;;;12.40;99.90;;;;;;6344624;22;20050;-77
2022/10/15 04:34:31;;;;;;;80.07;39.03;;;12.50;99.90;;;;;;6344651;22;20059;-77
2022/10/15 04:36:57;;;;;;;82.78;38.50;;;12.40;99.90;;;;;;6372946;22;20018;-77
2022/10/15 04:39:22;;;;;;;71.00;35.45;;;12.40;99.90;;;;;;6372877;22;20422;-78
2022/10/15 04:41:48;;;;;;;86.85;38.05;;;12.50;99.90;;;;;;6372874;22;20048;-78
2022/10/15 04:44:13;;;;;;;88.35;38.42;;;12.50;99.90;;;;;;6372715;22;20025;-78
2022/10/15 04:46:39;;;;;;;85.50;38.90;;;12.40;99.90;;;;;;6372839;22;20041;-77
2022/10/15 04:49:05;;;;;;;82.00;37.78;;;12.40;99.90;;;;;;6372799;22;20068;-78
2022/10/15 04:51:30;;;;;;;89.20;39.95;;;12.40;99.90;;;;;;6372631;22;20071;-78
2022/10/15 04:53:56;;;;;;;85.28;38.42;;;12.30;99.90;;;;;;6372773;22;20022;-78
2022/10/15 04:56:22;;;;;;;81.63;38.05;;;12.40;99.90;;;;;;6372426;22;20423;-78
2022/10/15 04:58:49;;;;;;;73.05;36.15;;;12.30;99.90;;;;;;6344476;22;20025;-78
2022/10/15 05:01:17;;;;;;;82.43;37.28;;;12.30;99.90;;;;;;6372744;22;20021;-78
2022/10/15 05:03:45;;;;;;;73.90;35.75;;;12.20;99.90;;;;;;6372334;22;20022;-78
2022/10/15 05:06:31;;;;;;;82.60;36.03;;;12.20;99.90;;;;;;6344398;22;20015;-78
2022/10/15 05:08:56;;;;;;;69.82;35.72;;;12.20;99.90;;;;;;6344368;22;20023;-78
2022/10/15 05:11:24;;;;;;;80.78;37.10;;;12.10;99.90;;;;;;6372002;22;20330;-78
2022/10/15 05:13:50;;;;;;;85.05;36.75;;;12.10;99.90;;;;;;6372316;22;20050;-78
2022/10/15 05:16:19;;;;;;;76.50;37.42;;;12.10;99.90;;;;;;6344209;22;20461;-78
2022/10/15 05:18:46;;;;;;;83.57;39.03;;;12.10;99.90;;;;;;6372534;22;20090;-78
2022/10/15 05:21:13;;;;;;;76.32;36.60;;;12.20;99.90;;;;;;6344256;22;20014;-78
2022/10/15 05:23:39;;;;;;;89.45;38.65;;;12.10;99.90;;;;;;6344269;22;20014;-77
2022/10/15 05:26:12;;;;;;;89.10;39.33;;;12.20;99.90;;;;;;6372472;22;20090;-77
2022/10/15 05:28:37;;;;;;;94.97;38.78;;;12.20;99.90;;;;;;6344192;22;20021;-78
2022/10/15 05:31:08;;;;;;;84.65;37.65;;;12.10;99.90;;;;;;6344018;22;20010;-77
2022/10/15 05:33:34;;;;;;;84.32;38.15;;;12.10;99.90;;;;;;6372223;22;20372;-77
2022/10/15 05:36:16;;;;;;;84.78;37.35;;;12.20;99.90;;;;;;6371979;22;20458;-77
2022/10/15 05:38:46;;;;;;;86.30;38.67;;;12.20;99.90;;;;;;6344064;22;20093;-77
2022/10/15 05:41:12;;;;;;;90.18;39.22;;;12.10;99.90;;;;;;6344033;22;20037;-77
2022/10/15 05:43:38;;;;;;;87.07;40.33;;;12.10;99.90;;;;;;6343930;22;20430;-77
2022/10/15 05:46:03;;;;;;;82.68;38.30;;;12.10;99.90;;;;;;6343957;22;20070;-77
2022/10/15 05:48:29;;;;;;;90.03;40.20;;;12.10;99.90;;;;;;6372251;22;20015;-77
2022/10/15 05:51:06;;;;;;;96.93;40.42;;;12.10;99.90;;;;;;6343777;22;20105;-77
2022/10/15 05:53:31;;;;;;;88.97;39.65;;;12.10;99.90;;;;;;6371937;22;20502;-78
2022/10/15 05:55:58;;;;;;;88.15;39.65;;;12.20;99.90;;;;;;6343950;22;20014;-78
2022/10/15 05:58:27;;;;;;;98.50;42.40;;;12.20;99.90;;;;;;6372142;22;20063;-78
2022/10/15 06:00:54;;;;;;;91.20;40.85;;;12.20;99.90;;;;;;6372016;22;20085;-78
2022/10/15 06:03:20;;;;;;;88.72;41.15;;;12.20;99.90;;;;;;6343586;22;20022;-78
2022/10/15 06:05:45;;;;;;;87.15;39.25;;;12.20;99.90;;;;;;6343667;22;20014;-78
2022/10/15 06:08:11;;;;;;;91.70;40.33;;;12.20;99.90;;;;;;6343285;22;20049;-78
2022/10/15 06:10:36;;;;;;;96.90;41.55;;;12.20;99.90;;;;;;6343070;22;20016;-78
2022/10/15 06:13:03;;;;;;;93.20;41.58;;;12.20;99.90;;;;;;6342941;22;20014;-78
2022/10/15 06:15:29;;;;;;;92.53;43.28;;;12.20;99.90;;;;;;6341676;22;20022;-78
2022/10/15 06:17:55;;;;;;;96.72;42.25;;;12.20;99.90;;;;;;6370836;22;20391;-78
2022/10/15 06:20:21;;;;;;;96.55;42.35;;;12.20;99.90;;;;;;6343577;22;20053;-78
2022/10/15 06:22:46;;;;;;;98.65;41.92;;;12.20;99.90;;;;;;6343531;22;20092;-78
2022/10/15 06:25:12;;;;;;;97.57;42.80;;;12.30;99.90;;;;;;6370763;22;20025;-77
2022/10/15 06:27:38;;;;;;;96.55;43.17;;;12.20;99.90;;;;;;6371733;22;20025;-79
2022/10/15 06:30:05;;;;;;;106.85;43.83;;;12.30;99.90;;;;;;6371602;22;20018;-79
2022/10/15 06:32:30;;;;;;;93.10;41.35;;;12.30;99.90;;;;;;6371305;22;20042;-79
2022/10/15 06:34:56;;;;;;;111.22;49.30;;;12.30;99.90;;;;;;6371644;22;20018;-79
2022/10/15 06:37:22;;;;;;;95.53;41.03;;;12.20;99.90;;;;;;6343475;22;20402;-79
2022/10/15 06:39:47;;;;;;;89.90;40.83;;;12.30;99.90;;;;;;6371435;22;20085;-79
2022/10/15 06:42:13;;;;;;;88.93;39.13;;;12.30;99.90;;;;;;6342343;22;20067;-78
2022/10/15 06:44:39;;;;;;;91.75;41.55;;;12.30;99.90;;;;;;6371202;22;20011;-78
2022/10/15 06:47:05;;;;;;;93.53;40.70;;;12.30;99.90;;;;;;6371037;22;20023;-78
2022/10/15 06:49:31;;;;;;;97.82;43.20;;;12.30;99.90;;;;;;6371155;22;20014;-77
2022/10/15 06:51:58;;;;;;;90.88;41.40;;;12.20;99.90;;;;;;6343174;22;20034;-77
2022/10/15 06:54:24;;;;;;;91.50;38.95;;;12.30;99.90;;;;;;6370752;22;20442;-78
2022/10/15 06:56:50;;;;;;;88.43;41.13;;;12.30;99.90;;;;;;6371222;22;20057;-77
2022/10/15 06:59:15;;;;;;;82.22;40.00;;;12.30;99.90;;;;;;6371236;22;20021;-77
2022/10/15 07:01:41;;;;;;;89.15;40.08;;;12.30;99.90;;;;;;6370877;22;20018;-77
2022/10/15 07:04:07;;;;;;;91.07;42.55;;;12.30;99.90;;;;;;6343030;22;20016;-78
2022/10/15 07:06:35;;;;;;;87.30;40.70;;;12.20;99.90;;;;;;6343003;22;20021;-77
2022/10/15 07:09:02;;;;;;;91.43;40.05;;;12.20;99.90;;;;;;6370966;22;20085;-78
2022/10/15 07:11:28;;;;;;;90.53;41.60;;;12.30;99.90;;;;;;6342705;22;20018;-77
2022/10/15 07:13:53;;;;;;;94.68;40.78;;;12.30;99.90;;;;;;6370910;22;20019;-79
2022/10/15 07:16:19;;;;;;;96.97;43.72;;;12.30;99.90;;;;;;6371101;22;20018;-77
2022/10/15 07:18:47;;;;;;;101.10;43.20;;;12.30;99.90;;;;;;6342891;22;20019;-78
2022/10/15 07:21:13;;;;;;;101.28;44.65;;;12.30;99.90;;;;;;6370570;22;20417;-77
2022/10/15 07:23:38;;;;;;;111.05;45.38;;;12.40;99.90;;;;;;6370454;22;20022;-77
2022/10/15 07:26:04;;;;;;;106.80;45.28;;;12.40;99.90;;;;;;6370919;22;20019;-77
2022/10/15 07:28:30;;;;;;;103.55;44.03;;;12.50;99.90;;;;;;6342732;22;20014;-77
2022/10/15 07:31:01;;;;;;;95.28;42.40;;;12.50;99.90;;;;;;6370318;22;20025;-77
2022/10/15 07:33:26;;;;;;;102.90;45.20;;;12.60;99.90;;;;;;6342862;22;20085;-77
2022/10/15 07:35:52;;;;;;;98.68;44.88;;;12.50;99.90;;;;;;6370717;22;20034;-77
2022/10/15 07:38:18;;;;;;;102.97;47.47;;;12.60;99.90;;;;;;6370782;22;20025;-78
2022/10/15 07:40:43;;;;;;;96.53;46.90;;;12.50;99.90;;;;;;6342777;22;20018;-78
2022/10/15 07:43:09;;;;;;;100.60;46.30;;;12.50;99.90;;;;;;6316567;22;20014;-78
2022/10/15 07:45:35;;;;;;;101.15;46.08;;;12.50;99.90;;;;;;6370808;22;20029;-78
2022/10/15 07:48:01;;;;;;;100.15;45.90;;;12.50;99.90;;;;;;6370795;22;20040;-78
2022/10/15 07:50:26;;;;;;;97.65;47.42;;;12.50;99.90;;;;;;6342406;22;20445;-78
2022/10/15 07:52:52;;;;;;;101.97;46.85;;;12.50;99.90;;;;;;6342696;22;20097;-78
2022/10/15 07:55:18;;;;;;;102.70;46.95;;;12.50;99.90;;;;;;6370673;22;20011;-78
2022/10/15 07:57:43;;;;;;;107.53;49.28;;;12.50;99.90;;;;;;6342665;22;20333;-78
2022/10/15 08:00:09;;;;;;;105.18;48.13;;;12.50;99.90;;;;;;6342664;22;20018;-78
2022/10/15 08:02:35;;;;;;;105.38;45.88;;;12.50;99.90;;;;;;6342639;22;20086;-78
2022/10/15 08:05:01;;;;;;;108.78;48.63;;;12.60;99.90;;;;;;6370238;22;20050;-78
2022/10/15 08:07:26;;;;;;;111.07;47.97;;;12.60;99.90;;;;;;6370291;22;20022;-78
2022/10/15 08:09:52;;;;;;;112.38;46.25;;;12.60;99.90;;;;;;6370174;22;20333;-77
2022/10/15 08:12:18;;;;;;;107.18;48.92;;;12.70;99.90;;;;;;6342407;22;20510;-77
2022/10/15 08:14:43;;;;;;;111.35;46.72;;;12.70;99.90;;;;;;6342542;22;20006;-77
2022/10/15 08:17:09;;;;;;;115.50;48.03;;;12.70;99.90;;;;;;6370287;22;20019;-77
2022/10/15 08:19:35;;;;;;;125.28;52.78;;;12.70;99.90;;;;;;6342282;22;20010;-78
2022/10/15 08:22:00;;;;;;;117.00;50.10;;;12.70;99.90;;;;;;6370121;22;20498;-78
2022/10/15 08:28:10;;;;;;;114.43;45.08;;;12.80;99.90;;;;;;6370176;22;20040;-78
2022/10/15 08:30:37;;;;;;;100.45;43.28;;;12.80;99.90;;;;;;6370173;22;20025;-78
2022/10/15 08:33:03;;;;;;;121.20;47.22;;;12.80;99.90;;;;;;6342350;22;20050;-79
2022/10/15 08:35:28;;;;;;;112.47;45.83;;;12.80;99.90;;;;;;6370105;22;20029;-78
2022/10/15 08:37:54;;;;;;;107.68;44.38;;;12.90;99.90;;;;;;6370468;22;20010;-78
2022/10/15 08:40:21;;;;;;;102.90;45.25;;;12.90;99.90;;;;;;6342139;22;20338;-78
2022/10/15 08:42:49;;;;;;;121.15;45.40;;;12.90;99.90;;;;;;6342166;22;20018;-77
2022/10/15 08:45:29;;;;;;;104.13;44.65;;;12.90;99.90;;;;;;6370575;22;20011;-78
2022/10/15 08:48:02;;;;;;;104.00;43.67;;;13.00;99.90;;;;;;6371247;22;20018;-77
2022/10/15 08:50:51;;;;;;;103.10;42.50;;;13.00;99.90;;;;;;6372386;22;20089;-78
2022/10/15 08:53:21;;;;;;;97.57;41.08;;;13.10;99.90;;;;;;6372343;22;20021;-77
2022/10/15 08:55:49;;;;;;;102.53;43.72;;;13.00;99.90;;;;;;6344252;22;20010;-78
2022/10/15 08:58:36;;;;;;;101.07;43.47;;;13.00;99.90;;;;;;6372069;22;20442;-77
2022/10/15 09:01:27;;;;;;;97.20;42.28;;;13.00;99.90;;;;;;6344126;22;20430;-77
2022/10/15 09:04:21;;;;;;;92.30;41.33;;;12.90;99.90;;;;;;6371980;22;20446;-77
2022/10/15 09:07:20;;;;;;;92.57;41.55;;;13.00;99.90;;;;;;6372174;22;20468;-77
2022/10/15 09:09:52;;;;;;;92.55;40.53;;;13.00;99.90;;;;;;6259680;22;20016;-78
2022/10/15 09:12:43;;;;;;;89.00;39.90;;;13.00;99.90;;;;;;6372158;22;20056;-79
2022/10/15 09:15:18;;;;;;;93.47;40.05;;;13.00;99.90;;;;;;6371964;22;20010;-78
2022/10/15 09:17:47;;;;;;;95.03;41.38;;;13.10;99.90;;;;;;6371959;22;20040;-78
2022/10/15 09:20:28;;;;;;;95.15;41.08;;;13.00;99.90;;;;;;6371742;22;20011;-78
2022/10/15 09:22:54;;;;;;;88.55;38.22;;;13.10;99.90;;;;;;6343844;22;20025;-78
2022/10/15 09:25:33;;;;;;;76.38;35.65;;;13.20;99.90;;;;;;6343787;22;20014;-79
2022/10/15 09:28:07;;;;;;;81.38;36.00;;;13.20;99.90;;;;;;6372112;22;20025;-79
2022/10/15 09:30:52;;;;;;;68.97;32.15;;;13.20;99.90;;;;;;6371913;22;20029;-78
2022/10/15 09:34:01;;;;;;;74.90;35.25;;;13.10;99.90;;;;;;6371525;22;20068;-78
2022/10/15 09:40:11;;;;;;;69.10;32.75;;;13.20;99.90;;;;;;6371948;22;20097;-77
2022/10/15 09:42:39;;;;;;;68.93;32.33;;;13.20;99.90;;;;;;6371795;22;20023;-78
2022/10/15 09:49:19;;;;;;;72.05;34.55;;;13.20;99.90;;;;;;6372020;22;20014;-78
2022/10/15 09:52:05;;;;;;;75.55;34.25;;;13.30;99.90;;;;;;6371290;22;20091;-79
2022/10/15 09:54:31;;;;;;;76.13;35.08;;;13.30;99.90;;;;;;6370785;22;20014;-78
2022/10/15 09:56:57;;;;;;;75.88;35.20;;;13.30;99.90;;;;;;6371801;22;20063;-78
2022/10/15 09:59:24;;;;;;;75.00;37.22;;;13.40;99.90;;;;;;6342852;22;20018;-78
2022/10/15 10:01:57;;;;;;;69.47;33.63;;;13.30;99.90;;;;;;6371745;22;20030;-78
2022/10/15 10:04:27;;;;;;;65.93;33.47;;;13.50;99.90;;;;;;6371461;22;20026;-77
2022/10/15 10:06:55;;;;;;;57.15;29.17;;;13.40;99.90;;;;;;6343268;22;20015;-78
2022/10/15 10:09:24;;;;;;;54.72;28.52;;;13.40;99.90;;;;;;6371334;22;20061;-78
2022/10/15 10:11:51;;;;;;;57.13;27.88;;;13.50;99.90;;;;;;6371378;22;20315;-78
2022/10/15 10:14:27;;;;;;;52.28;29.58;;;13.50;99.90;;;;;;6343141;22;20021;-78
2022/10/15 10:17:26;;;;;;;59.08;31.67;;;13.40;99.90;;;;;;6343402;22;20020;-77
2022/10/15 10:20:20;;;;;;;52.17;28.85;;;13.40;99.90;;;;;;6347325;22;20308;-78
2022/10/15 10:22:48;;;;;;;54.50;30.33;;;13.50;99.90;;;;;;6371474;22;20045;-78
2022/10/15 10:25:41;;;;;;;50.40;28.27;;;13.40;99.90;;;;;;6371602;22;20095;-78
2022/10/15 10:28:10;;;;;;;49.50;27.17;;;13.50;99.90;;;;;;6371608;22;20025;-77
2022/10/15 10:30:55;;;;;;;50.40;26.73;;;13.40;99.90;;;;;;6342844;22;20388;-77
2022/10/15 10:33:30;;;;;;;54.05;28.48;;;13.50;99.90;;;;;;6371538;22;20015;-77
2022/10/15 10:35:57;;;;;;;49.42;27.00;;;13.60;99.90;;;;;;6371510;22;20014;-77
2022/10/15 10:38:53;;;;;;;48.53;24.98;;;13.50;99.90;;;;;;6370803;22;20017;-77
2022/10/15 10:41:18;;;;;;;43.92;22.42;;;13.60;99.90;;;;;;6343069;22;20024;-76
2022/10/15 10:43:54;;;;;;;40.47;21.25;;;13.60;99.90;;;;;;6369261;22;20089;-76
2022/10/15 10:46:23;;;;;;;40.90;22.17;;;13.60;99.90;;;;;;6370309;22;20071;-78
2022/10/15 10:48:52;;;;;;;48.95;25.98;;;13.60;99.90;;;;;;6371025;22;20010;-77
2022/10/15 10:51:21;;;;;;;48.53;26.20;;;13.70;99.90;;;;;;6371209;22;20059;-76
2022/10/15 10:53:51;;;;;;;46.35;25.38;;;13.70;99.90;;;;;;6371057;22;20072;-78
2022/10/15 10:56:28;;;;;;;46.03;24.23;;;13.70;99.90;;;;;;6371184;22;20010;-77
2022/10/15 10:59:01;;;;;;;44.15;23.08;;;13.80;99.90;;;;;;6371434;22;20491;-76
2022/10/15 11:01:28;;;;;;;38.13;21.05;;;13.70;99.90;;;;;;6342899;22;20452;-78
2022/10/15 11:07:59;;;;;;;41.90;22.20;;;13.80;99.90;;;;;;6342775;22;20098;-79
2022/10/15 11:10:32;;;;;;;42.72;20.88;;;13.80;99.90;;;;;;6342645;22;20018;-79
2022/10/15 11:13:41;;;;;;;37.05;20.13;;;13.70;99.90;;;;;;6342857;22;20074;-81
2022/10/15 11:16:19;;;;;;;41.72;22.05;;;13.70;99.90;;;;;;6341236;22;20477;-78
2022/10/15 11:18:55;;;;;;;40.80;20.33;;;13.80;99.90;;;;;;6370959;22;20031;-79
2022/10/15 11:21:45;;;;;;;34.63;19.83;;;13.70;99.90;;;;;;6371121;22;20006;-78
2022/10/15 11:24:17;;;;;;;37.50;20.23;;;13.80;99.90;;;;;;6341789;22;20018;-78
2022/10/15 11:26:59;;;;;;;36.88;19.50;;;13.90;99.90;;;;;;6342799;22;20038;-77
2022/10/15 11:29:43;;;;;;;33.15;20.08;;;13.90;99.90;;;;;;6370880;22;20089;-78
2022/10/15 11:32:21;;;;;;;37.65;19.70;;;13.80;99.90;;;;;;6342756;22;20054;-78
2022/10/15 11:35:06;;;;;;;37.78;20.48;;;13.90;99.90;;;;;;6342990;22;20018;-78
2022/10/15 11:37:48;;;;;;;32.55;17.70;;;13.90;99.90;;;;;;6370504;22;20022;-77
2022/10/15 11:40:16;;;;;;;30.55;17.00;;;14.00;99.90;;;;;;6370555;22;20014;-77
2022/10/15 11:43:00;;;;;;;30.90;17.90;;;14.10;99.90;;;;;;6342736;22;20014;-77
2022/10/15 11:49:23;;;;;;;27.80;15.63;;;14.30;99.90;;;;;;6342595;22;20014;-78
2022/10/15 11:52:14;;;;;;;25.80;14.60;;;14.30;99.90;;;;;;6243157;23;20417;-77
2022/10/15 11:54:47;;;;;;;22.90;14.38;;;14.30;99.90;;;;;;6370753;22;20014;-79
2022/10/15 11:57:17;;;;;;;24.27;13.85;;;14.40;99.90;;;;;;6342367;22;20039;-78
2022/10/15 11:59:53;;;;;;;23.92;13.88;;;14.40;99.90;;;;;;6370423;22;20334;-78
2022/10/15 12:02:33;;;;;;;22.02;12.85;;;14.40;99.90;;;;;;6370912;22;20025;-78
2022/10/15 12:05:05;;;;;;;22.20;12.52;;;14.50;99.90;;;;;;6370818;22;20064;-80
2022/10/15 12:07:41;;;;;;;22.50;12.70;;;14.50;99.90;;;;;;6369563;22;20014;-77
2022/10/15 12:10:12;;;;;;;20.85;12.85;;;14.60;99.90;;;;;;6342329;22;20014;-77
2022/10/15 12:13:17;;;;;;;20.73;12.35;;;14.60;99.90;;;;;;6342635;22;20025;-77
2022/10/15 12:15:58;;;;;;;20.30;12.32;;;14.60;99.90;;;;;;6370760;22;20045;-76
2022/10/15 12:18:47;;;;;;;18.33;11.80;;;14.60;99.90;;;;;;6370476;22;20021;-77
2022/10/15 12:21:32;;;;;;;22.95;13.02;;;14.70;99.90;;;;;;6370687;22;20082;-77
2022/10/15 12:23:58;;;;;;;18.67;12.40;;;14.80;99.90;;;;;;6344139;22;20021;-77
2022/10/15 12:26:24;;;;;;;21.27;13.52;;;14.90;99.90;;;;;;6372511;22;20002;-78
2022/10/15 12:28:52;;;;;;;18.80;12.98;;;15.10;99.90;;;;;;6372080;22;20349;-78
2022/10/15 12:31:19;;;;;;;15.77;10.88;;;15.10;99.90;;;;;;6371463;22;20473;-77
2022/10/15 12:33:51;;;;;;;22.15;11.90;;;15.20;99.90;;;;;;6344387;22;20018;-77
2022/10/15 12:36:31;;;;;;;19.13;13.00;;;15.20;99.90;;;;;;6344489;22;20018;-78
2022/10/15 12:39:03;;;;;;;17.83;12.40;;;15.20;99.90;;;;;;6344314;22;20022;-77
2022/10/15 12:45:22;;;;;;;18.88;11.40;;;15.20;99.90;;;;;;6372736;22;20013;-78
2022/10/15 12:48:12;;;;;;;20.60;11.88;;;15.30;99.90;;;;;;6344128;22;20014;-78
2022/10/15 12:50:37;;;;;;;20.77;12.07;;;15.30;99.90;;;;;;6343983;22;20049;-79
2022/10/15 12:53:22;;;;;;;20.45;13.07;;;15.40;99.90;;;;;;6372007;22;20034;-79
2022/10/15 12:56:08;;;;;;;14.43;10.07;;;15.40;99.90;;;;;;6372246;22;20018;-79
2022/10/15 12:58:35;;;;;;;17.33;11.35;;;15.40;99.90;;;;;;6372020;22;20089;-79
2022/10/15 13:01:27;;;;;;;18.13;11.85;;;15.40;99.90;;;;;;6343897;22;20014;-80
2022/10/15 13:03:57;;;;;;;15.38;10.43;;;15.40;99.90;;;;;;6287299;22;20011;-78
2022/10/15 13:06:32;;;;;;;14.48;10.05;;;15.40;99.90;;;;;;6372385;22;20101;-78
2022/10/15 13:09:04;;;;;;;15.32;9.45;;;15.40;99.90;;;;;;6372464;22;20010;-78
2022/10/15 13:11:34;;;;;;;16.25;10.10;;;15.40;99.90;;;;;;6371613;22;20509;-78
2022/10/15 13:14:12;;;;;;;14.65;9.18;;;15.40;99.90;;;;;;6372467;22;20014;-78
2022/10/15 13:16:44;;;;;;;17.73;9.45;;;15.40;99.90;;;;;;6372212;22;20053;-77
2022/10/15 13:19:44;;;;;;;15.18;8.95;;;15.40;99.90;;;;;;6343915;22;20015;-78
2022/10/15 13:22:22;;;;;;;14.00;9.15;;;15.40;99.90;;;;;;6304344;22;20025;-77
2022/10/15 13:24:48;;;;;;;15.65;9.80;;;15.30;99.90;;;;;;6371584;22;20445;-79
2022/10/15 13:27:30;;;;;;;14.73;9.75;;;15.20;99.90;;;;;;6344036;22;20014;-78
2022/10/15 13:30:08;;;;;;;16.17;10.25;;;15.10;99.90;;;;;;6371755;22;20021;-77
2022/10/15 13:33:00;;;;;;;16.60;11.10;;;15.20;99.90;;;;;;6372061;22;20021;-78
2022/10/15 13:35:31;;;;;;;17.58;11.15;;;15.10;99.90;;;;;;6372141;22;20026;-78
2022/10/15 13:37:59;;;;;;;16.88;10.93;;;15.00;99.90;;;;;;6343520;22;20018;-78